Time;durP1;ratioP1;P1;durP2;ratioP2;P2;SDS_P1;SDS_P2;PMS_P1;PMS_P2;Temp;Humidity;BMP_temperature;BMP_pressure;BME280_temperature;BME280_humidity;BME280_pressure;Samples;Min_cycle;Max_cycle;Signal;HPM_P1;HPM_P2
2023/01/06 00:01:11;;;;;;;8.70;4.10;;;;;;;11.23;58.17;99834.64;105625;1309;21974;-61
2023/01/06 00:03:37;;;;;;;6.30;3.80;;;;;;;11.24;58.10;99836.02;105737;1308;21998;-61
2023/01/06 00:06:04;;;;;;;7.00;4.00;;;;;;;11.24;58.00;99836.35;105742;1309;21962;-61
2023/01/06 00:08:30;;;;;;;8.70;4.20;;;;;;;11.32;57.60;99832.13;105681;1309;21959;-61
2023/01/06 00:10:56;;;;;;;6.60;4.10;;;;;;;11.36;57.31;99834.66;105627;1309;21972;-61
2023/01/06 00:13:22;;;;;;;6.20;4.40;;;;;;;11.28;57.53;99843.98;105715;1308;21960;-61
2023/01/06 00:15:48;;;;;;;6.70;4.40;;;;;;;11.28;57.84;99843.10;105734;1304;21968;-61
2023/01/06 00:18:14;;;;;;;7.80;4.50;;;;;;;11.37;57.82;99842.17;105602;1308;21968;-61
2023/01/06 00:20:39;;;;;;;7.30;4.10;;;;;;;11.36;57.96;99849.77;105649;1308;21997;-60
2023/01/06 00:23:05;;;;;;;6.50;3.80;;;;;;;11.42;57.95;99847.69;105656;1310;23490;-60
2023/01/06 00:25:31;;;;;;;7.10;4.30;;;;;;;11.45;58.02;99849.73;105660;1307;21971;-60
2023/01/06 00:27:57;;;;;;;7.50;4.60;;;;;;;11.44;58.04;99853.96;105639;1309;21965;-60
2023/01/06 00:30:23;;;;;;;7.60;4.90;;;;;;;11.53;57.81;99855.86;105659;1309;21947;-61
2023/01/06 00:32:49;;;;;;;8.60;5.00;;;;;;;11.58;57.41;99860.13;105666;1307;21977;-60
2023/01/06 00:35:15;;;;;;;7.50;4.80;;;;;;;11.58;57.26;99863.98;105678;1311;21963;-60
2023/01/06 00:37:41;;;;;;;7.50;4.60;;;;;;;11.56;57.25;99861.23;105625;1311;21959;-60
2023/01/06 00:40:07;;;;;;;9.20;4.60;;;;;;;11.54;57.13;99861.44;105648;1312;21965;-60
2023/01/06 00:42:33;;;;;;;6.80;4.40;;;;;;;11.52;57.16;99856.77;105669;1311;21973;-59
2023/01/06 00:44:59;;;;;;;9.20;5.60;;;;;;;11.41;57.22;99861.41;105617;1310;22007;-60
2023/01/06 00:47:24;;;;;;;8.20;4.70;;;;;;;11.34;57.19;99854.20;105651;1310;21963;-60
2023/01/06 00:49:50;;;;;;;7.30;4.70;;;;;;;11.30;57.13;99852.38;105721;1309;21968;-61
2023/01/06 00:52:16;;;;;;;9.40;4.30;;;;;;;11.22;57.01;99854.50;105634;1312;21964;-60
2023/01/06 00:54:42;;;;;;;6.50;4.10;;;;;;;11.17;57.31;99860.58;105605;1311;22036;-60
2023/01/06 00:57:08;;;;;;;7.10;4.40;;;;;;;11.13;57.35;99856.45;105663;1309;21959;-60
2023/01/06 00:59:35;;;;;;;7.10;4.40;;;;;;;11.01;57.39;99857.25;105614;1312;21994;-60
2023/01/06 01:02:01;;;;;;;6.70;4.40;;;;;;;10.95;57.63;99862.13;105630;1310;21957;-60
2023/01/06 01:04:26;;;;;;;7.60;4.90;;;;;;;10.91;57.66;99866.42;105656;1309;21962;-60
2023/01/06 01:06:53;;;;;;;8.00;4.60;;;;;;;10.88;57.85;99866.66;105740;1312;21956;-61
2023/01/06 01:09:22;;;;;;;7.20;4.40;;;;;;;10.86;58.15;99869.67;105650;1308;21959;-61
2023/01/06 01:14:35;;;;;;;8.30;4.70;;;;;;;10.87;58.28;99870.36;105695;1311;21972;-60
2023/01/06 01:17:00;;;;;;;6.50;4.40;;;;;;;10.92;58.30;99869.22;105689;1307;21969;-60
2023/01/06 01:19:26;;;;;;;7.00;4.50;;;;;;;10.98;58.41;99870.66;105635;1305;21992;-61
2023/01/06 01:21:52;;;;;;;8.00;4.40;;;;;;;11.07;58.47;99871.69;105592;1307;21958;-61
2023/01/06 01:24:18;;;;;;;8.10;4.70;;;;;;;11.17;58.31;99871.99;105705;1303;21954;-60
2023/01/06 01:26:44;;;;;;;9.00;4.70;;;;;;;11.19;58.42;99870.38;105642;1307;21986;-62
2023/01/06 01:29:14;;;;;;;6.90;4.50;;;;;;;11.24;58.52;99868.15;105701;1307;21987;-60
2023/01/06 01:31:40;;;;;;;7.70;4.90;;;;;;;11.30;58.66;99864.48;105763;1308;21970;-60
2023/01/06 01:34:06;;;;;;;8.60;4.70;;;;;;;11.36;58.64;99859.27;105760;1307;22432;-60
2023/01/06 01:36:33;;;;;;;7.00;4.30;;;;;;;11.44;58.55;99858.90;105674;1307;21968;-61
2023/01/06 01:38:59;;;;;;;6.30;4.30;;;;;;;11.49;58.43;99855.80;105707;1308;21960;-60
2023/01/06 01:41:25;;;;;;;8.00;4.50;;;;;;;11.49;58.41;99853.67;105655;1308;21966;-60
2023/01/06 01:43:53;;;;;;;7.10;4.70;;;;;;;11.52;58.20;99849.20;105707;1308;21964;-60
2023/01/06 01:46:29;;;;;;;8.10;4.20;;;;;;;11.52;58.19;99851.66;105650;1308;21958;-61
2023/01/06 01:48:57;;;;;;;6.80;4.00;;;;;;;11.37;57.99;99848.17;105628;1307;21965;-61
2023/01/06 01:51:27;;;;;;;7.40;4.40;;;;;;;11.35;58.01;99851.39;105690;1307;21946;-61
2023/01/06 01:53:53;;;;;;;;;;;;;;;11.33;57.88;99853.00;105629;1307;21971;-60
2023/01/06 01:56:22;;;;;;;7.40;4.20;;;;;;;11.26;57.90;99853.86;105631;1306;21958;-60
2023/01/06 01:58:54;;;;;;;8.20;4.10;;;;;;;11.26;58.07;99855.27;105657;1308;21977;-60
2023/01/06 02:01:20;;;;;;;5.70;3.70;;;;;;;11.30;58.04;99857.63;105692;1310;23834;-60
2023/01/06 02:03:46;;;;;;;6.40;4.10;;;;;;;11.30;58.03;99859.38;105646;1304;22028;-61
2023/01/06 02:06:14;;;;;;;6.50;4.20;;;;;;;11.31;57.89;99864.98;105664;1310;21957;-61
2023/01/06 02:08:53;;;;;;;8.10;4.00;;;;;;;11.35;58.07;99868.93;105753;1312;22031;-61
2023/01/06 02:11:19;;;;;;;6.40;4.10;;;;;;;11.40;58.04;99874.63;105658;1307;22429;-60
2023/01/06 02:13:46;;;;;;;6.80;3.50;;;;;;;11.43;57.97;99879.30;105648;1307;21956;-61
2023/01/06 02:16:15;;;;;;;6.20;3.90;;;;;;;11.49;58.17;99876.86;105588;1309;21966;-61
2023/01/06 02:18:59;;;;;;;6.40;3.70;;;;;;;11.54;57.97;99880.80;105736;1294;21975;-60
2023/01/06 02:22:04;;;;;;;6.60;3.80;;;;;;;11.58;57.76;99877.88;105674;1307;21968;-61
2023/01/06 02:24:57;;;;;;;4.60;2.80;;;;;;;11.68;57.85;99879.06;105643;1307;21968;-60
2023/01/06 02:27:48;;;;;;;5.50;3.20;;;;;;;11.72;57.59;99881.92;105622;1308;21970;-61
2023/01/06 02:30:20;;;;;;;5.80;3.70;;;;;;;11.78;57.59;99886.55;105631;1308;21952;-61
2023/01/06 02:33:06;;;;;;;6.50;3.10;;;;;;;11.81;57.58;99889.09;105646;1300;21967;-61
2023/01/06 02:35:54;;;;;;;5.30;3.20;;;;;;;11.85;57.54;99890.05;105647;1311;21974;-60
2023/01/06 02:38:47;;;;;;;6.30;3.40;;;;;;;11.87;57.51;99892.98;105629;1309;21962;-61
2023/01/06 02:41:31;;;;;;;5.40;3.20;;;;;;;11.88;57.12;99897.73;105654;1307;21970;-61
2023/01/06 02:44:18;;;;;;;5.60;3.20;;;;;;;11.86;57.05;99897.73;105676;1307;21981;-60
2023/01/06 02:46:58;;;;;;;6.10;2.90;;;;;;;11.85;57.21;99893.73;105595;1310;22015;-61
2023/01/06 02:49:27;;;;;;;4.60;2.60;;;;;;;11.84;57.09;99892.19;105686;1308;21962;-60
2023/01/06 02:52:03;;;;;;;4.10;2.40;;;;;;;11.75;57.43;99893.80;105630;1307;21967;-59
2023/01/06 02:54:43;;;;;;;4.90;2.40;;;;;;;11.69;57.47;99895.19;105638;1307;21956;-61
2023/01/06 02:57:17;;;;;;;5.70;2.80;;;;;;;11.82;57.35;99892.77;105659;1299;21989;-60
2023/01/06 03:00:09;;;;;;;4.30;2.90;;;;;;;11.88;57.22;99895.77;105653;1308;21972;-61
2023/01/06 03:02:35;;;;;;;3.90;2.60;;;;;;;11.92;57.15;99897.08;104958;1311;1002370;-61
2023/01/06 03:05:01;;;;;;;4.60;2.30;;;;;;;11.92;57.07;99897.98;105816;1302;22005;-62
2023/01/06 03:07:27;;;;;;;3.60;2.20;;;;;;;11.87;57.32;99903.17;105627;1312;21956;-62
2023/01/06 03:09:53;;;;;;;4.40;2.30;;;;;;;11.86;57.49;99899.52;105645;1309;21968;-63
2023/01/06 03:12:46;;;;;;;4.30;2.40;;;;;;;11.84;57.38;99896.58;105620;1305;21961;-63
2023/01/06 03:15:12;;;;;;;4.40;1.90;;;;;;;11.80;57.52;99898.59;105593;1308;21959;-60
2023/01/06 03:17:38;;;;;;;4.10;2.20;;;;;;;11.82;57.42;99900.13;105632;1308;21970;-61
2023/01/06 03:20:04;;;;;;;2.60;1.70;;;;;;;11.84;57.37;99902.18;105607;1309;21978;-62
2023/01/06 03:22:30;;;;;;;3.40;1.70;;;;;;;11.81;57.53;99902.45;105774;1309;22424;-61
2023/01/06 03:24:56;;;;;;;3.40;1.80;;;;;;;11.78;57.75;99900.77;105639;1295;21973;-61
2023/01/06 03:27:24;;;;;;;3.90;2.10;;;;;;;11.82;57.65;99902.60;105600;1309;21966;-62
2023/01/06 03:29:50;;;;;;;3.30;1.50;;;;;;;11.86;57.43;99903.91;105666;1307;23268;-60
2023/01/06 03:32:25;;;;;;;2.60;1.40;;;;;;;11.88;57.55;99905.61;105582;1304;21952;-61
2023/01/06 03:35:18;;;;;;;2.60;1.40;;;;;;;11.93;57.42;99907.77;105649;1308;21961;-62
2023/01/06 03:37:52;;;;;;;3.30;1.50;;;;;;;11.96;57.57;99908.23;105640;1307;22149;-62
2023/01/06 03:40:27;;;;;;;2.50;1.40;;;;;;;11.97;57.59;99907.83;105584;1307;21976;-63
2023/01/06 03:43:15;;;;;;;1.80;1.00;;;;;;;11.99;57.53;99909.39;105717;1304;21969;-61
2023/01/06 03:45:49;;;;;;;2.70;1.20;;;;;;;12.08;57.15;99910.23;105707;1308;22009;-61
2023/01/06 03:48:23;;;;;;;2.00;1.20;;;;;;;12.01;57.40;99910.75;105643;1307;22322;-62
2023/01/06 03:51:10;;;;;;;2.40;1.20;;;;;;;11.97;57.47;99915.23;105682;1308;22017;-62
2023/01/06 03:53:57;;;;;;;2.70;1.50;;;;;;;11.99;57.30;99918.35;104197;1300;1003412;-60
2023/01/06 03:56:36;;;;;;;3.60;1.60;;;;;;;11.99;57.20;99921.70;105619;1308;21955;-62
2023/01/06 03:59:10;;;;;;;2.60;1.10;;;;;;;11.94;57.15;99924.44;105591;1310;24112;-60
2023/01/06 04:01:35;;;;;;;2.50;1.20;;;;;;;11.92;57.20;99920.63;105699;1308;21950;-62
2023/01/06 04:04:02;;;;;;;2.90;1.20;;;;;;;11.89;57.15;99923.70;105679;1308;21957;-59
2023/01/06 04:06:28;;;;;;;2.70;1.40;;;;;;;11.89;57.35;99925.29;105648;1309;21962;-62
2023/01/06 04:08:55;;;;;;;2.50;1.50;;;;;;;11.90;57.10;99926.30;105825;1305;21975;-59
2023/01/06 04:14:06;;;;;;;3.80;1.40;;;;;;;11.89;56.97;99930.22;105628;1304;21970;-63
2023/01/06 04:16:31;;;;;;;5.90;1.70;;;;;;;11.85;57.16;99932.77;105649;1307;23103;-62
2023/01/06 04:18:57;;;;;;;2.60;1.40;;;;;;;11.90;56.92;99929.98;105660;1307;21950;-59
2023/01/06 04:21:23;;;;;;;3.60;2.00;;;;;;;11.97;56.61;99930.70;105730;1308;21940;-59
2023/01/06 04:23:48;;;;;;;3.10;1.80;;;;;;;11.89;56.91;99939.16;105766;1308;21958;-63
2023/01/06 04:26:17;;;;;;;5.20;1.70;;;;;;;11.95;56.98;99934.98;105687;1307;21957;-60
2023/01/06 04:28:43;;;;;;;3.10;1.80;;;;;;;11.95;57.00;99942.73;105657;1309;22129;-60
2023/01/06 04:31:10;;;;;;;4.60;2.10;;;;;;;11.93;57.13;99941.87;105616;1307;22000;-63
2023/01/06 04:33:36;;;;;;;4.60;2.10;;;;;;;11.94;57.42;99947.65;105671;1308;21992;-64
2023/01/06 04:36:04;;;;;;;7.60;2.30;;;;;;;11.97;57.46;99949.00;105764;1310;23641;-60
2023/01/06 04:38:31;;;;;;;3.30;1.70;;;;;;;12.00;57.51;99950.17;105769;1307;21957;-64
2023/01/06 04:40:57;;;;;;;4.70;1.80;;;;;;;12.04;57.59;99948.33;105745;1307;21976;-62
2023/01/06 04:43:23;;;;;;;3.10;2.00;;;;;;;12.10;57.42;99947.83;105652;1308;21961;-60
2023/01/06 04:45:48;;;;;;;3.20;2.30;;;;;;;12.10;57.32;99952.92;105645;1303;21960;-62
2023/01/06 04:48:14;;;;;;;3.20;1.90;;;;;;;12.11;57.13;99959.06;105656;1299;21982;-60
2023/01/06 04:50:40;;;;;;;3.40;2.30;;;;;;;12.12;57.22;99959.92;105650;1307;21965;-60
2023/01/06 04:53:06;;;;;;;3.00;2.00;;;;;;;12.18;57.05;99964.67;105695;1309;21961;-61
2023/01/06 04:55:32;;;;;;;3.20;2.10;;;;;;;12.14;57.27;99967.61;105650;1307;21957;-61
2023/01/06 04:57:57;;;;;;;3.20;2.10;;;;;;;12.23;57.12;99973.19;105659;1303;21961;-61
2023/01/06 05:00:23;;;;;;;3.20;1.90;;;;;;;12.28;57.06;99972.88;105677;1307;22017;-61
2023/01/06 05:02:49;;;;;;;2.80;1.60;;;;;;;12.30;56.91;99977.04;105672;1307;21998;-61
2023/01/06 05:05:15;;;;;;;2.80;1.70;;;;;;;12.24;56.98;99980.02;105641;1307;22005;-62
2023/01/06 05:07:41;;;;;;;3.50;1.60;;;;;;;12.24;57.23;99988.98;105701;1300;21956;-62
2023/01/06 05:10:08;;;;;;;6.40;1.60;;;;;;;12.23;57.26;99990.23;105626;1307;21958;-61
2023/01/06 05:12:36;;;;;;;3.60;2.00;;;;;;;12.23;57.41;99991.29;105713;1307;22047;-61
2023/01/06 05:15:03;;;;;;;3.60;1.70;;;;;;;12.26;57.14;99994.90;105732;1299;22023;-62
2023/01/06 05:17:29;;;;;;;3.80;2.10;;;;;;;12.21;56.89;99998.03;105702;1309;21967;-63
2023/01/06 05:19:54;;;;;;;3.10;2.20;;;;;;;12.17;57.20;100005.31;105690;1306;21969;-62
2023/01/06 05:22:20;;;;;;;3.00;2.20;;;;;;;12.15;57.19;100009.44;105639;1307;21959;-61
2023/01/06 05:24:46;;;;;;;3.00;1.90;;;;;;;12.15;57.14;100015.92;105690;1303;22040;-61
2023/01/06 05:27:12;;;;;;;4.50;1.70;;;;;;;12.11;57.28;100015.85;105695;1304;22008;-60
2023/01/06 05:29:38;;;;;;;3.20;1.60;;;;;;;12.16;57.26;100016.09;105682;1307;21975;-63
2023/01/06 05:32:06;;;;;;;3.30;1.80;;;;;;;12.13;57.57;100017.57;105648;1309;21963;-63
2023/01/06 05:34:34;;;;;;;2.70;1.70;;;;;;;12.16;57.71;100015.52;105703;1304;21974;-61
2023/01/06 05:36:59;;;;;;;3.40;1.80;;;;;;;12.21;57.60;100019.13;105636;1307;21971;-60
2023/01/06 05:39:25;;;;;;;3.60;1.60;;;;;;;12.22;57.69;100020.86;105708;1307;21950;-61
2023/01/06 05:41:51;;;;;;;3.10;1.90;;;;;;;12.26;57.68;100022.89;105613;1304;21962;-63
2023/01/06 05:44:17;;;;;;;3.00;1.30;;;;;;;12.31;57.56;100028.39;105667;1309;21961;-60
2023/01/06 05:46:42;;;;;;;2.30;1.40;;;;;;;12.32;57.46;100031.16;105658;1307;21958;-63
2023/01/06 05:49:08;;;;;;;2.70;1.60;;;;;;;12.30;57.62;100033.35;105651;1307;21973;-62
2023/01/06 05:51:34;;;;;;;2.20;1.20;;;;;;;12.31;57.78;100038.59;105655;1308;21970;-61
2023/01/06 05:54:00;;;;;;;2.70;1.50;;;;;;;12.25;58.03;100041.55;105645;1304;21973;-61
2023/01/06 05:56:25;;;;;;;2.20;1.20;;;;;;;12.31;57.69;100044.73;105646;1304;22435;-63
2023/01/06 05:58:52;;;;;;;2.90;1.30;;;;;;;12.35;57.76;100051.15;105755;1309;21971;-63
2023/01/06 06:01:26;;;;;;;2.70;1.40;;;;;;;12.46;57.64;100056.16;105646;1305;21960;-61
2023/01/06 06:03:52;;;;;;;2.50;1.30;;;;;;;12.44;57.69;100058.33;105679;1303;21971;-60
2023/01/06 06:06:18;;;;;;;2.10;1.10;;;;;;;12.41;57.94;100067.02;105705;1307;21952;-64
2023/01/06 06:08:44;;;;;;;2.50;1.30;;;;;;;12.45;58.15;100073.26;105762;1309;21974;-64
2023/01/06 06:11:13;;;;;;;2.80;1.10;;;;;;;12.46;58.30;100075.69;105637;1307;22419;-60
2023/01/06 06:13:47;;;;;;;2.50;1.40;;;;;;;12.50;58.23;100074.70;105635;1299;21958;-60
2023/01/06 06:16:14;;;;;;;4.80;1.30;;;;;;;12.56;58.16;100077.39;105622;1304;21939;-64
2023/01/06 06:18:43;;;;;;;2.80;1.50;;;;;;;12.56;58.27;100083.72;105636;1309;21977;-63
2023/01/06 06:21:14;;;;;;;3.00;1.60;;;;;;;12.60;58.21;100086.61;105782;1294;22001;-60
2023/01/06 06:23:42;;;;;;;2.10;1.20;;;;;;;12.64;58.41;100088.63;105712;1298;21966;-64
2023/01/06 06:26:13;;;;;;;1.40;0.90;;;;;;;12.66;58.36;100094.21;105722;1308;22929;-61
2023/01/06 06:28:39;;;;;;;1.70;0.90;;;;;;;12.68;58.26;100103.46;105663;1306;21978;-65
2023/01/06 06:31:10;;;;;;;1.90;0.80;;;;;;;12.70;58.32;100108.55;105794;1303;22011;-60
2023/01/06 06:33:36;;;;;;;2.10;1.30;;;;;;;12.64;58.58;100112.73;105695;1308;21966;-63
2023/01/06 06:36:03;;;;;;;2.90;1.50;;;;;;;12.63;58.75;100118.04;105711;1307;21957;-64
2023/01/06 06:38:30;;;;;;;2.80;1.10;;;;;;;12.57;58.82;100125.58;105686;1309;21968;-64
2023/01/06 06:40:56;;;;;;;4.50;1.40;;;;;;;12.75;58.56;100130.05;105616;1309;22018;-61
2023/01/06 06:43:23;;;;;;;3.40;1.30;;;;;;;12.83;58.51;100134.60;105727;1307;21972;-61
2023/01/06 06:45:49;;;;;;;2.30;0.90;;;;;;;12.84;58.52;100136.35;105851;1307;21972;-65
2023/01/06 06:48:19;;;;;;;3.80;1.30;;;;;;;12.86;58.43;100141.95;105632;1309;21977;-61
2023/01/06 06:50:45;;;;;;;2.60;1.20;;;;;;;12.92;58.35;100146.55;105616;1309;23720;-65
2023/01/06 06:53:10;;;;;;;2.40;1.10;;;;;;;12.99;58.32;100151.13;105715;1308;21961;-65
2023/01/06 06:55:36;;;;;;;3.50;2.00;;;;;;;13.02;58.17;100154.04;105819;1307;22501;-61
2023/01/06 06:58:02;;;;;;;2.60;1.10;;;;;;;13.03;57.95;100161.04;105703;1304;21964;-65
2023/01/06 07:00:28;;;;;;;1.90;1.20;;;;;;;13.01;58.18;100160.23;105686;1304;21964;-65
2023/01/06 07:02:54;;;;;;;2.40;1.30;;;;;;;13.05;58.07;100163.66;105647;1307;21983;-65
2023/01/06 07:05:19;;;;;;;3.10;1.30;;;;;;;12.98;58.21;100173.52;105759;1307;21969;-65
2023/01/06 07:07:45;;;;;;;1.60;1.20;;;;;;;13.04;58.20;100176.52;105742;1298;21965;-65
2023/01/06 07:10:16;;;;;;;3.20;1.10;;;;;;;13.02;58.17;100183.09;105790;1307;21972;-65
2023/01/06 07:12:43;;;;;;;2.70;1.40;;;;;;;13.04;58.06;100190.79;105690;1307;21973;-60
2023/01/06 07:15:09;;;;;;;2.00;1.20;;;;;;;13.11;58.09;100194.32;105610;1304;22023;-61
2023/01/06 07:17:35;;;;;;;2.70;1.30;;;;;;;12.98;57.97;100199.39;105685;1307;21969;-61
2023/01/06 07:20:01;;;;;;;3.80;1.80;;;;;;;13.05;58.07;100205.74;105685;1308;21973;-60
2023/01/06 07:22:27;;;;;;;2.50;1.20;;;;;;;13.19;57.79;100206.98;105585;1307;21971;-60
2023/01/06 07:24:52;;;;;;;3.50;1.70;;;;;;;13.19;57.75;100212.27;105748;1307;22131;-60
2023/01/06 07:27:18;;;;;;;10.50;4.00;;;;;;;13.20;57.47;100217.70;105750;1307;21960;-60
2023/01/06 07:29:44;;;;;;;4.70;2.10;;;;;;;13.23;57.35;100219.73;105658;1309;21967;-61
2023/01/06 07:32:09;;;;;;;4.10;1.80;;;;;;;13.29;57.13;100222.21;105651;1308;21969;-65
2023/01/06 07:34:36;;;;;;;3.50;1.20;;;;;;;13.18;56.98;100221.63;105631;1308;21970;-65
2023/01/06 07:37:01;;;;;;;1.80;1.10;;;;;;;13.12;57.09;100225.48;105619;1302;22013;-60
2023/01/06 07:39:27;;;;;;;2.20;1.20;;;;;;;13.10;56.99;100227.11;105829;1307;22157;-66
2023/01/06 07:41:55;;;;;;;3.10;1.20;;;;;;;13.04;57.22;100233.08;105617;1308;21968;-65
2023/01/06 07:44:21;;;;;;;1.80;0.90;;;;;;;13.06;57.14;100235.30;105920;1305;21991;-61
2023/01/06 07:46:46;;;;;;;1.80;1.20;;;;;;;13.05;56.96;100242.38;105804;1309;21985;-60
2023/01/06 07:49:12;;;;;;;2.30;1.10;;;;;;;13.13;56.94;100251.17;105628;1307;21970;-65
2023/01/06 07:51:38;;;;;;;1.80;1.00;;;;;;;13.12;56.96;100254.70;105629;1301;21972;-61
2023/01/06 07:54:04;;;;;;;1.70;1.10;;;;;;;13.04;56.99;100262.12;105649;1308;21972;-61
2023/01/06 07:56:32;;;;;;;3.10;1.40;;;;;;;13.05;57.02;100270.20;105630;1303;22045;-66
2023/01/06 07:58:57;;;;;;;1.40;1.00;;;;;;;13.00;56.93;100270.52;105732;1307;21975;-66
2023/01/06 08:01:25;;;;;;;3.00;1.60;;;;;;;13.00;57.00;100276.14;105671;1308;21962;-65
2023/01/06 08:03:55;;;;;;;1.70;1.00;;;;;;;12.89;57.01;100278.30;105666;1308;21961;-66
2023/01/06 08:06:21;;;;;;;2.50;1.50;;;;;;;13.06;57.00;100282.33;105624;1307;22419;-65
2023/01/06 08:08:46;;;;;;;2.40;1.40;;;;;;;12.98;56.81;100285.52;105726;1305;21966;-60
2023/01/06 08:11:13;;;;;;;2.00;1.40;;;;;;;13.02;56.98;100285.25;105694;1302;21989;-60
2023/01/06 08:13:38;;;;;;;2.70;1.40;;;;;;;13.08;56.83;100292.35;105614;1307;21971;-65
2023/01/06 08:16:05;;;;;;;1.60;1.00;;;;;;;13.06;56.79;100293.10;105655;1307;21960;-65
2023/01/06 08:18:31;;;;;;;2.40;1.40;;;;;;;13.10;56.82;100292.81;105733;1307;21971;-65
2023/01/06 08:21:01;;;;;;;2.10;1.30;;;;;;;13.11;56.42;100296.85;105649;1305;21964;-66
2023/01/06 08:23:29;;;;;;;2.10;1.40;;;;;;;13.07;56.39;100297.99;105727;1307;21973;-67
2023/01/06 08:26:05;;;;;;;3.80;2.00;;;;;;;13.01;56.33;100298.84;105482;1307;358044;-61
2023/01/06 08:28:32;;;;;;;2.90;1.40;;;;;;;12.93;56.54;100303.08;105619;1307;21954;-66
2023/01/06 08:30:59;;;;;;;2.50;1.40;;;;;;;13.07;56.62;100300.98;105659;1307;23330;-67
2023/01/06 08:33:24;;;;;;;2.40;1.30;;;;;;;13.26;56.13;100305.46;105723;1302;21960;-67
2023/01/06 08:36:00;;;;;;;2.10;1.30;;;;;;;13.29;55.86;100307.15;105666;1307;21951;-67
2023/01/06 08:38:27;;;;;;;1.90;1.30;;;;;;;13.25;55.88;100308.13;105666;1307;22071;-67
2023/01/06 08:40:53;;;;;;;3.80;1.60;;;;;;;13.25;55.75;100315.02;105600;1307;21958;-67
2023/01/06 08:43:19;;;;;;;2.60;1.30;;;;;;;13.25;55.43;100312.18;105687;1308;23858;-67
2023/01/06 08:45:44;;;;;;;1.80;1.20;;;;;;;13.46;55.51;100315.57;105622;1307;21978;-67
2023/01/06 08:48:11;;;;;;;2.50;1.00;;;;;;;13.38;55.35;100312.05;105659;1306;21968;-67
2023/01/06 08:50:38;;;;;;;2.20;1.30;;;;;;;13.44;55.18;100316.32;105675;1307;21957;-67
2023/01/06 08:53:03;;;;;;;1.60;1.10;;;;;;;13.42;55.01;100321.13;105629;1302;21979;-60
2023/01/06 08:55:29;;;;;;;2.10;1.20;;;;;;;13.39;54.78;100318.04;105721;1304;21963;-60
2023/01/06 08:57:55;;;;;;;2.30;1.10;;;;;;;13.30;54.64;100325.64;105586;1306;21977;-61
2023/01/06 09:00:20;;;;;;;1.70;1.20;;;;;;;13.55;54.57;100334.56;105585;1307;21960;-60
2023/01/06 09:02:48;;;;;;;1.50;1.00;;;;;;;13.56;54.45;100331.19;105623;1307;21960;-60
2023/01/06 09:05:14;;;;;;;1.80;1.00;;;;;;;13.48;54.43;100331.37;105592;1308;21974;-60
2023/01/06 09:07:41;;;;;;;1.80;0.90;;;;;;;13.41;54.63;100328.37;105617;1307;21959;-60
2023/01/06 09:10:08;;;;;;;2.10;1.00;;;;;;;13.39;54.78;100328.25;105575;1308;21966;-59
2023/01/06 09:12:33;;;;;;;1.10;0.70;;;;;;;13.35;54.93;100324.65;105728;1307;21974;-59
2023/01/06 09:14:59;;;;;;;2.30;1.10;;;;;;;13.51;54.80;100321.25;105779;1307;21957;-59
2023/01/06 09:17:26;;;;;;;1.90;0.90;;;;;;;13.39;54.53;100318.90;105744;1304;21964;-60
2023/01/06 09:19:52;;;;;;;2.30;1.20;;;;;;;13.36;54.49;100324.09;105747;1303;21976;-60
2023/01/06 09:22:17;;;;;;;2.00;1.10;;;;;;;13.53;54.36;100327.21;105670;1309;21958;-60
2023/01/06 09:24:45;;;;;;;1.50;0.90;;;;;;;13.58;54.04;100329.20;105722;1307;21973;-66
2023/01/06 09:27:11;;;;;;;2.30;0.90;;;;;;;13.64;54.04;100330.30;105728;1307;21982;-66
2023/01/06 09:29:37;;;;;;;1.70;1.00;;;;;;;13.71;54.03;100338.56;105775;1308;21957;-66
2023/01/06 09:32:03;;;;;;;2.00;1.00;;;;;;;13.72;54.38;100336.23;105743;1304;21962;-67
2023/01/06 09:34:28;;;;;;;2.40;1.30;;;;;;;13.60;54.34;100333.56;105758;1307;21970;-60
2023/01/06 09:36:54;;;;;;;1.70;1.10;;;;;;;13.56;54.17;100335.05;105719;1309;22004;-67
2023/01/06 09:39:20;;;;;;;1.70;1.00;;;;;;;13.55;54.04;100335.61;105766;1307;22869;-60
2023/01/06 09:42:01;;;;;;;1.30;0.80;;;;;;;13.66;54.34;100335.53;105764;1307;21953;-60
2023/01/06 09:44:31;;;;;;;2.20;0.90;;;;;;;13.66;53.86;100340.80;105832;1304;22056;-60
2023/01/06 09:47:01;;;;;;;1.60;0.90;;;;;;;13.64;53.60;100341.58;105730;1304;21967;-67
2023/01/06 09:49:39;;;;;;;1.60;0.80;;;;;;;13.63;53.44;100339.33;105618;1308;22021;-65
2023/01/06 09:52:27;;;;;;;1.10;0.70;;;;;;;13.54;53.01;100333.20;105606;1307;21960;-67
2023/01/06 09:54:56;;;;;;;2.30;1.00;;;;;;;13.54;52.68;100332.13;105611;1307;21964;-66
2023/01/06 09:57:32;;;;;;;2.30;1.00;;;;;;;13.53;52.86;100327.55;105826;1304;21960;-66
2023/01/06 10:00:00;;;;;;;3.30;1.00;;;;;;;13.47;52.71;100331.94;105791;1303;21987;-66
2023/01/06 10:02:36;;;;;;;2.00;0.80;;;;;;;13.81;52.51;100330.91;105625;1307;21963;-60
2023/01/06 10:05:12;;;;;;;1.60;0.50;;;;;;;13.78;52.13;100325.70;105694;1308;23222;-60
2023/01/06 10:08:28;;;;;;;2.20;0.80;;;;;;;13.84;51.99;100324.48;105704;1307;22033;-67
2023/01/06 10:11:16;;;;;;;1.70;1.00;;;;;;;13.72;51.86;100330.25;105450;1308;21972;-67
2023/01/06 10:14:00;;;;;;;1.50;0.80;;;;;;;13.91;51.96;100335.73;105613;1304;22183;-61
2023/01/06 10:16:38;;;;;;;1.70;0.80;;;;;;;13.92;51.25;100333.79;105609;1307;21985;-61
2023/01/06 10:19:41;;;;;;;2.20;0.90;;;;;;;13.95;51.10;100326.64;105694;1307;22066;-62
2023/01/06 10:22:19;;;;;;;2.40;0.90;;;;;;;13.79;50.46;100331.48;105624;1307;21968;-66
2023/01/06 10:25:16;;;;;;;1.40;0.70;;;;;;;13.84;50.29;100336.62;105630;1308;21985;-61
2023/01/06 10:27:48;;;;;;;1.90;1.10;;;;;;;14.03;50.52;100340.89;105685;1307;22029;-61
2023/01/06 10:30:26;;;;;;;2.20;1.00;;;;;;;13.95;50.30;100342.36;105625;1307;22245;-66
2023/01/06 10:32:53;;;;;;;2.30;0.70;;;;;;;13.78;49.62;100344.92;105688;1308;22751;-61
2023/01/06 10:35:20;;;;;;;1.30;0.80;;;;;;;13.75;49.64;100350.48;105799;1308;22030;-68
2023/01/06 10:37:48;;;;;;;1.30;0.60;;;;;;;13.80;49.95;100354.55;105695;1302;21968;-60
2023/01/06 10:40:22;;;;;;;1.50;0.70;;;;;;;13.60;49.77;100352.77;105683;1304;22073;-67
2023/01/06 10:42:59;;;;;;;1.60;0.80;;;;;;;13.75;50.10;100355.77;105713;1307;22737;-67
2023/01/06 10:45:36;;;;;;;2.00;1.30;;;;;;;13.82;50.48;100361.39;105774;1307;21973;-60
2023/01/06 10:48:10;;;;;;;2.90;0.70;;;;;;;13.97;50.66;100356.04;105744;1307;23790;-68
2023/01/06 10:50:37;;;;;;;3.40;1.80;;;;;;;13.95;50.51;100354.17;105713;1308;22011;-65
2023/01/06 10:53:03;;;;;;;2.10;1.10;;;;;;;13.89;50.41;100358.38;105752;1303;23611;-66
2023/01/06 10:55:39;;;;;;;1.10;0.60;;;;;;;14.09;50.59;100359.09;106267;1305;21963;-67
2023/01/06 10:58:22;;;;;;;1.40;0.80;;;;;;;14.11;50.09;100356.75;105780;1304;22164;-69
2023/01/06 11:01:07;;;;;;;2.90;1.40;;;;;;;14.04;50.14;100352.87;105729;1306;21959;-60
2023/01/06 11:03:34;;;;;;;1.70;0.60;;;;;;;13.96;49.92;100351.48;105741;1306;21962;-60
2023/01/06 11:06:04;;;;;;;5.70;2.00;;;;;;;14.10;49.21;100355.36;105706;1306;21966;-60
2023/01/06 11:08:33;;;;;;;1.40;0.70;;;;;;;14.18;48.80;100357.42;105737;1306;23722;-60
2023/01/06 11:10:59;;;;;;;1.70;0.70;;;;;;;14.16;48.37;100363.13;105725;1302;22198;-60
2023/01/06 11:13:33;;;;;;;1.30;0.60;;;;;;;14.11;48.27;100364.15;105599;1306;21996;-67
2023/01/06 11:16:03;;;;;;;1.30;0.60;;;;;;;14.14;48.19;100374.13;105708;1306;21965;-60
2023/01/06 11:18:37;;;;;;;2.10;0.70;;;;;;;14.29;48.27;100381.86;105690;1306;22166;-60
2023/01/06 11:21:15;;;;;;;1.40;0.70;;;;;;;14.14;48.03;100383.65;105821;1306;21972;-68
2023/01/06 11:23:42;;;;;;;1.40;0.70;;;;;;;14.07;47.99;100385.79;105731;1306;21978;-65
2023/01/06 11:26:11;;;;;;;1.10;0.60;;;;;;;14.07;47.87;100397.43;105690;1306;22835;-61
2023/01/06 11:28:43;;;;;;;0.90;0.50;;;;;;;14.00;48.15;100395.66;105782;1306;21948;-68
2023/01/06 11:31:12;;;;;;;1.30;0.70;;;;;;;13.90;48.25;100401.06;105782;1306;23771;-60
2023/01/06 11:33:48;;;;;;;1.00;0.40;;;;;;;14.02;48.36;100396.50;105757;1306;21966;-61
2023/01/06 11:36:14;;;;;;;2.90;0.50;;;;;;;13.91;48.24;100397.13;105711;1306;21967;-66
2023/01/06 11:39:06;;;;;;;3.70;0.70;;;;;;;13.79;48.18;100405.90;105752;1301;21973;-67